sensor_id;sensor_type;location;lat;lon;timestamp;temperature;humidity
41310;DHT22;27057;51.438;-0.010;2022-08-01T00:01:13;20.90;99.90
41310;DHT22;27057;51.438;-0.010;2022-08-01T00:03:41;20.80;99.90
41310;DHT22;27057;51.438;-0.010;2022-08-01T00:06:08;21.00;99.90
41310;DHT22;27057;51.438;-0.010;2022-08-01T00:08:35;20.80;99.90
41310;DHT22;27057;51.438;-0.010;2022-08-01T00:11:02;20.80;99.90
41310;DHT22;27057;51.438;-0.010;2022-08-01T00:13:30;20.80;99.90
41310;DHT22;27057;51.438;-0.010;2022-08-01T00:15:57;20.80;99.90
41310;DHT22;27057;51.438;-0.010;2022-08-01T00:18:25;20.70;99.90
41310;DHT22;27057;51.438;-0.010;2022-08-01T00:20:52;20.70;99.90
41310;DHT22;27057;51.438;-0.010;2022-08-01T00:23:19;20.70;99.90
41310;DHT22;27057;51.438;-0.010;2022-08-01T00:25:47;20.70;99.90
41310;DHT22;27057;51.438;-0.010;2022-08-01T00:28:14;20.60;99.90
41310;DHT22;27057;51.438;-0.010;2022-08-01T00:30:43;20.60;99.90
41310;DHT22;27057;51.438;-0.010;2022-08-01T00:33:10;20.60;99.90
41310;DHT22;27057;51.438;-0.010;2022-08-01T00:35:37;20.50;99.90
41310;DHT22;27057;51.438;-0.010;2022-08-01T00:38:05;20.20;99.90
41310;DHT22;27057;51.438;-0.010;2022-08-01T00:40:32;20.50;99.90
41310;DHT22;27057;51.438;-0.010;2022-08-01T00:42:59;20.50;99.90
41310;DHT22;27057;51.438;-0.010;2022-08-01T00:45:27;20.80;99.90
41310;DHT22;27057;51.438;-0.010;2022-08-01T00:47:54;19.80;99.90
41310;DHT22;27057;51.438;-0.010;2022-08-01T00:50:21;20.30;99.90
41310;DHT22;27057;51.438;-0.010;2022-08-01T00:52:51;20.30;99.90
41310;DHT22;27057;51.438;-0.010;2022-08-01T00:55:18;20.30;99.90
41310;DHT22;27057;51.438;-0.010;2022-08-01T00:57:47;20.30;99.90
41310;DHT22;27057;51.438;-0.010;2022-08-01T01:00:34;20.30;99.90
41310;DHT22;27057;51.438;-0.010;2022-08-01T01:03:22;20.30;99.90
41310;DHT22;27057;51.438;-0.010;2022-08-01T01:06:26;20.30;99.90
41310;DHT22;27057;51.438;-0.010;2022-08-01T01:09:15;20.30;99.90
41310;DHT22;27057;51.438;-0.010;2022-08-01T01:14:56;20.30;99.90
41310;DHT22;27057;51.438;-0.010;2022-08-01T01:20:23;20.30;99.90
41310;DHT22;27057;51.438;-0.010;2022-08-01T01:28:32;20.10;99.90
41310;DHT22;27057;51.438;-0.010;2022-08-01T01:31:01;20.10;99.90
41310;DHT22;27057;51.438;-0.010;2022-08-01T01:33:31;20.10;99.90
41310;DHT22;27057;51.438;-0.010;2022-08-01T01:36:09;20.10;99.90
41310;DHT22;27057;51.438;-0.010;2022-08-01T01:38:43;20.10;99.90
41310;DHT22;27057;51.438;-0.010;2022-08-01T01:41:12;20.10;99.90
41310;DHT22;27057;51.438;-0.010;2022-08-01T01:43:41;20.10;99.90
41310;DHT22;27057;51.438;-0.010;2022-08-01T01:46:11;20.10;99.90
41310;DHT22;27057;51.438;-0.010;2022-08-01T01:48:40;20.10;99.90
41310;DHT22;27057;51.438;-0.010;2022-08-01T01:51:08;20.10;99.90
41310;DHT22;27057;51.438;-0.010;2022-08-01T01:53:36;20.10;99.90
41310;DHT22;27057;51.438;-0.010;2022-08-01T01:56:04;20.20;99.90
41310;DHT22;27057;51.438;-0.010;2022-08-01T01:58:34;20.20;99.90
41310;DHT22;27057;51.438;-0.010;2022-08-01T02:01:02;20.20;99.90
41310;DHT22;27057;51.438;-0.010;2022-08-01T02:03:31;20.20;99.90
41310;DHT22;27057;51.438;-0.010;2022-08-01T02:05:59;20.20;99.90
41310;DHT22;27057;51.438;-0.010;2022-08-01T02:08:29;20.10;99.90
41310;DHT22;27057;51.438;-0.010;2022-08-01T02:11:00;20.10;99.90
41310;DHT22;27057;51.438;-0.010;2022-08-01T02:14:01;19.80;99.90
41310;DHT22;27057;51.438;-0.010;2022-08-01T02:16:34;20.10;99.90
41310;DHT22;27057;51.438;-0.010;2022-08-01T02:19:03;20.00;99.90
41310;DHT22;27057;51.438;-0.010;2022-08-01T02:21:37;20.00;99.90
41310;DHT22;27057;51.438;-0.010;2022-08-01T02:24:13;19.90;99.90
41310;DHT22;27057;51.438;-0.010;2022-08-01T02:26:46;19.90;99.90
41310;DHT22;27057;51.438;-0.010;2022-08-01T02:29:21;19.90;99.90
41310;DHT22;27057;51.438;-0.010;2022-08-01T02:31:54;19.80;99.90
41310;DHT22;27057;51.438;-0.010;2022-08-01T02:34:24;19.80;99.90
41310;DHT22;27057;51.438;-0.010;2022-08-01T02:36:54;19.80;99.90
41310;DHT22;27057;51.438;-0.010;2022-08-01T02:39:24;19.80;99.90
41310;DHT22;27057;51.438;-0.010;2022-08-01T02:41:57;19.70;99.90
41310;DHT22;27057;51.438;-0.010;2022-08-01T02:44:31;19.70;99.90
41310;DHT22;27057;51.438;-0.010;2022-08-01T02:47:01;19.70;99.90
41310;DHT22;27057;51.438;-0.010;2022-08-01T02:49:33;19.70;99.90
41310;DHT22;27057;51.438;-0.010;2022-08-01T02:52:06;19.60;99.90
41310;DHT22;27057;51.438;-0.010;2022-08-01T02:54:35;19.60;99.90
41310;DHT22;27057;51.438;-0.010;2022-08-01T02:57:05;19.50;99.90
41310;DHT22;27057;51.438;-0.010;2022-08-01T02:59:34;19.50;99.90
41310;DHT22;27057;51.438;-0.010;2022-08-01T03:02:07;19.50;99.90
41310;DHT22;27057;51.438;-0.010;2022-08-01T03:04:38;19.40;99.90
41310;DHT22;27057;51.438;-0.010;2022-08-01T03:07:08;19.40;99.90
41310;DHT22;27057;51.438;-0.010;2022-08-01T03:09:39;19.40;99.90
41310;DHT22;27057;51.438;-0.010;2022-08-01T03:12:18;19.30;99.90
41310;DHT22;27057;51.438;-0.010;2022-08-01T03:14:47;19.20;99.90
41310;DHT22;27057;51.438;-0.010;2022-08-01T03:17:19;19.20;99.90
41310;DHT22;27057;51.438;-0.010;2022-08-01T03:19:48;19.10;99.90
41310;DHT22;27057;51.438;-0.010;2022-08-01T03:22:18;19.10;99.90
41310;DHT22;27057;51.438;-0.010;2022-08-01T03:24:49;18.80;99.90
41310;DHT22;27057;51.438;-0.010;2022-08-01T03:27:22;19.00;99.90
41310;DHT22;27057;51.438;-0.010;2022-08-01T03:29:52;19.00;99.90
41310;DHT22;27057;51.438;-0.010;2022-08-01T03:32:22;18.90;99.90
41310;DHT22;27057;51.438;-0.010;2022-08-01T03:34:50;18.90;99.90
41310;DHT22;27057;51.438;-0.010;2022-08-01T03:37:23;18.90;99.90
41310;DHT22;27057;51.438;-0.010;2022-08-01T03:42:50;18.80;99.90
41310;DHT22;27057;51.438;-0.010;2022-08-01T03:45:22;18.80;99.90
41310;DHT22;27057;51.438;-0.010;2022-08-01T03:47:57;18.70;99.90
41310;DHT22;27057;51.438;-0.010;2022-08-01T03:50:27;18.70;99.90
41310;DHT22;27057;51.438;-0.010;2022-08-01T03:52:57;18.70;99.90
41310;DHT22;27057;51.438;-0.010;2022-08-01T03:55:26;18.70;99.90
41310;DHT22;27057;51.438;-0.010;2022-08-01T03:57:55;18.70;99.90
41310;DHT22;27057;51.438;-0.010;2022-08-01T04:00:23;18.70;99.90
41310;DHT22;27057;51.438;-0.010;2022-08-01T04:02:51;18.80;99.90
41310;DHT22;27057;51.438;-0.010;2022-08-01T04:05:19;18.80;99.90
41310;DHT22;27057;51.438;-0.010;2022-08-01T04:07:48;18.80;99.90
41310;DHT22;27057;51.438;-0.010;2022-08-01T04:10:23;18.90;99.90
41310;DHT22;27057;51.438;-0.010;2022-08-01T04:12:51;18.90;99.90
41310;DHT22;27057;51.438;-0.010;2022-08-01T04:15:19;18.90;99.90
41310;DHT22;27057;51.438;-0.010;2022-08-01T04:17:47;18.90;99.90
41310;DHT22;27057;51.438;-0.010;2022-08-01T04:20:15;18.90;99.90
41310;DHT22;27057;51.438;-0.010;2022-08-01T04:22:42;18.90;99.90
41310;DHT22;27057;51.438;-0.010;2022-08-01T04:25:17;18.90;99.90
41310;DHT22;27057;51.438;-0.010;2022-08-01T04:27:49;18.90;99.90
41310;DHT22;27057;51.438;-0.010;2022-08-01T04:30:23;18.90;99.90
41310;DHT22;27057;51.438;-0.010;2022-08-01T04:32:54;18.80;99.90
41310;DHT22;27057;51.438;-0.010;2022-08-01T04:35:23;18.80;99.90
41310;DHT22;27057;51.438;-0.010;2022-08-01T04:38:14;18.80;99.90
41310;DHT22;27057;51.438;-0.010;2022-08-01T04:40:44;18.80;99.90
41310;DHT22;27057;51.438;-0.010;2022-08-01T04:43:15;18.70;99.90
41310;DHT22;27057;51.438;-0.010;2022-08-01T04:45:43;18.70;99.90
41310;DHT22;27057;51.438;-0.010;2022-08-01T04:48:11;18.70;99.90
41310;DHT22;27057;51.438;-0.010;2022-08-01T04:50:41;18.70;99.90
41310;DHT22;27057;51.438;-0.010;2022-08-01T04:53:19;18.70;99.90
41310;DHT22;27057;51.438;-0.010;2022-08-01T04:55:50;18.80;99.90
41310;DHT22;27057;51.438;-0.010;2022-08-01T04:58:17;18.80;99.90
41310;DHT22;27057;51.438;-0.010;2022-08-01T05:00:45;18.80;99.90
41310;DHT22;27057;51.438;-0.010;2022-08-01T05:03:13;18.80;99.90
41310;DHT22;27057;51.438;-0.010;2022-08-01T05:05:40;18.90;99.90
41310;DHT22;27057;51.438;-0.010;2022-08-01T05:08:07;18.80;99.90
41310;DHT22;27057;51.438;-0.010;2022-08-01T05:10:35;18.90;99.90
41310;DHT22;27057;51.438;-0.010;2022-08-01T05:13:02;18.90;99.90
41310;DHT22;27057;51.438;-0.010;2022-08-01T05:15:30;19.00;99.90
41310;DHT22;27057;51.438;-0.010;2022-08-01T05:17:57;19.00;99.90
41310;DHT22;27057;51.438;-0.010;2022-08-01T05:20:25;18.80;99.90
41310;DHT22;27057;51.438;-0.010;2022-08-01T05:22:52;19.00;99.90
41310;DHT22;27057;51.438;-0.010;2022-08-01T05:25:20;19.10;99.90
41310;DHT22;27057;51.438;-0.010;2022-08-01T05:28:07;19.10;99.90
41310;DHT22;27057;51.438;-0.010;2022-08-01T05:30:34;19.20;99.90
41310;DHT22;27057;51.438;-0.010;2022-08-01T05:33:02;19.20;99.90
41310;DHT22;27057;51.438;-0.010;2022-08-01T05:35:29;19.20;99.90
41310;DHT22;27057;51.438;-0.010;2022-08-01T05:38:15;19.30;99.90
41310;DHT22;27057;51.438;-0.010;2022-08-01T05:40:43;19.10;99.90
41310;DHT22;27057;51.438;-0.010;2022-08-01T05:43:10;19.40;99.90
41310;DHT22;27057;51.438;-0.010;2022-08-01T05:45:38;19.40;99.90
41310;DHT22;27057;51.438;-0.010;2022-08-01T05:48:05;19.50;99.90
41310;DHT22;27057;51.438;-0.010;2022-08-01T05:50:33;19.50;99.90
41310;DHT22;27057;51.438;-0.010;2022-08-01T05:53:00;19.50;99.90
41310;DHT22;27057;51.438;-0.010;2022-08-01T05:55:28;19.60;99.90
41310;DHT22;27057;51.438;-0.010;2022-08-01T05:57:55;19.70;99.90
41310;DHT22;27057;51.438;-0.010;2022-08-01T06:00:22;19.70;99.90
41310;DHT22;27057;51.438;-0.010;2022-08-01T06:02:50;19.80;99.90
41310;DHT22;27057;51.438;-0.010;2022-08-01T06:05:17;19.80;99.90
41310;DHT22;27057;51.438;-0.010;2022-08-01T06:07:44;19.90;99.90
41310;DHT22;27057;51.438;-0.010;2022-08-01T06:10:12;19.90;99.90
41310;DHT22;27057;51.438;-0.010;2022-08-01T06:12:39;20.00;99.90
41310;DHT22;27057;51.438;-0.010;2022-08-01T06:15:07;20.10;99.90
41310;DHT22;27057;51.438;-0.010;2022-08-01T06:17:34;20.10;99.90
41310;DHT22;27057;51.438;-0.010;2022-08-01T06:20:03;20.30;99.90
41310;DHT22;27057;51.438;-0.010;2022-08-01T06:22:30;20.30;99.90
41310;DHT22;27057;51.438;-0.010;2022-08-01T06:24:58;20.40;99.90
41310;DHT22;27057;51.438;-0.010;2022-08-01T06:27:26;20.50;99.90
41310;DHT22;27057;51.438;-0.010;2022-08-01T06:29:53;20.60;99.90
41310;DHT22;27057;51.438;-0.010;2022-08-01T06:32:21;20.60;99.90
41310;DHT22;27057;51.438;-0.010;2022-08-01T06:34:54;20.60;99.90
41310;DHT22;27057;51.438;-0.010;2022-08-01T06:37:22;20.60;99.90
41310;DHT22;27057;51.438;-0.010;2022-08-01T06:39:50;20.60;99.90
41310;DHT22;27057;51.438;-0.010;2022-08-01T06:42:17;20.60;99.90
41310;DHT22;27057;51.438;-0.010;2022-08-01T06:44:45;20.60;99.90
41310;DHT22;27057;51.438;-0.010;2022-08-01T06:47:13;20.70;99.90
41310;DHT22;27057;51.438;-0.010;2022-08-01T06:49:40;20.70;99.90
41310;DHT22;27057;51.438;-0.010;2022-08-01T06:52:07;20.70;99.90
41310;DHT22;27057;51.438;-0.010;2022-08-01T06:54:35;20.70;99.90
41310;DHT22;27057;51.438;-0.010;2022-08-01T06:57:05;20.60;99.90
41310;DHT22;27057;51.438;-0.010;2022-08-01T06:59:33;20.60;99.90
41310;DHT22;27057;51.438;-0.010;2022-08-01T07:02:00;20.70;99.90
41310;DHT22;27057;51.438;-0.010;2022-08-01T07:04:28;20.70;99.90
41310;DHT22;27057;51.438;-0.010;2022-08-01T07:06:56;20.70;99.90
41310;DHT22;27057;51.438;-0.010;2022-08-01T07:09:24;20.70;99.90
41310;DHT22;27057;51.438;-0.010;2022-08-01T07:11:51;20.70;99.90
41310;DHT22;27057;51.438;-0.010;2022-08-01T07:14:20;20.80;99.90
41310;DHT22;27057;51.438;-0.010;2022-08-01T07:16:47;20.80;99.90
41310;DHT22;27057;51.438;-0.010;2022-08-01T07:19:15;20.80;99.90
41310;DHT22;27057;51.438;-0.010;2022-08-01T07:21:42;20.90;99.90
41310;DHT22;27057;51.438;-0.010;2022-08-01T07:24:13;20.90;99.90
41310;DHT22;27057;51.438;-0.010;2022-08-01T07:26:43;21.00;99.90
41310;DHT22;27057;51.438;-0.010;2022-08-01T07:29:24;21.00;99.90
41310;DHT22;27057;51.438;-0.010;2022-08-01T07:31:53;21.10;99.90
41310;DHT22;27057;51.438;-0.010;2022-08-01T07:34:21;21.10;99.90
41310;DHT22;27057;51.438;-0.010;2022-08-01T07:36:50;21.20;99.90
41310;DHT22;27057;51.438;-0.010;2022-08-01T07:39:18;21.30;99.90
41310;DHT22;27057;51.438;-0.010;2022-08-01T07:41:46;21.30;99.90
41310;DHT22;27057;51.438;-0.010;2022-08-01T07:44:33;21.50;99.90
41310;DHT22;27057;51.438;-0.010;2022-08-01T07:47:01;21.50;99.90
41310;DHT22;27057;51.438;-0.010;2022-08-01T07:49:28;22.00;99.90
41310;DHT22;27057;51.438;-0.010;2022-08-01T07:51:56;21.60;99.90
41310;DHT22;27057;51.438;-0.010;2022-08-01T07:54:31;21.70;99.90
41310;DHT22;27057;51.438;-0.010;2022-08-01T07:57:01;21.70;99.90
41310;DHT22;27057;51.438;-0.010;2022-08-01T07:59:29;21.70;99.90
41310;DHT22;27057;51.438;-0.010;2022-08-01T08:01:57;21.80;99.90
41310;DHT22;27057;51.438;-0.010;2022-08-01T08:04:25;21.90;99.90
41310;DHT22;27057;51.438;-0.010;2022-08-01T08:06:53;22.00;99.90
41310;DHT22;27057;51.438;-0.010;2022-08-01T08:09:21;22.00;99.90
41310;DHT22;27057;51.438;-0.010;2022-08-01T08:11:48;22.10;99.90
41310;DHT22;27057;51.438;-0.010;2022-08-01T08:14:16;22.20;99.90
41310;DHT22;27057;51.438;-0.010;2022-08-01T08:16:44;22.30;99.90
41310;DHT22;27057;51.438;-0.010;2022-08-01T08:19:12;22.30;99.90
41310;DHT22;27057;51.438;-0.010;2022-08-01T08:24:09;22.40;99.90
41310;DHT22;27057;51.438;-0.010;2022-08-01T08:26:58;22.50;99.90
41310;DHT22;27057;51.438;-0.010;2022-08-01T08:29:27;22.40;99.90
41310;DHT22;27057;51.438;-0.010;2022-08-01T08:31:56;22.40;99.90
41310;DHT22;27057;51.438;-0.010;2022-08-01T08:34:26;22.30;99.90
41310;DHT22;27057;51.438;-0.010;2022-08-01T08:36:54;22.20;99.90
41310;DHT22;27057;51.438;-0.010;2022-08-01T08:39:25;22.20;99.90
41310;DHT22;27057;51.438;-0.010;2022-08-01T08:44:21;22.20;99.90
41310;DHT22;27057;51.438;-0.010;2022-08-01T08:46:50;22.20;99.90
41310;DHT22;27057;51.438;-0.010;2022-08-01T08:49:26;22.20;99.90
41310;DHT22;27057;51.438;-0.010;2022-08-01T08:52:03;22.30;99.90
41310;DHT22;27057;51.438;-0.010;2022-08-01T08:54:37;22.40;99.90
41310;DHT22;27057;51.438;-0.010;2022-08-01T08:57:04;22.50;99.90
41310;DHT22;27057;51.438;-0.010;2022-08-01T08:59:32;22.50;99.90
41310;DHT22;27057;51.438;-0.010;2022-08-01T09:01:59;22.60;99.90
41310;DHT22;27057;51.438;-0.010;2022-08-01T09:04:27;22.80;99.90
41310;DHT22;27057;51.438;-0.010;2022-08-01T09:06:54;22.90;99.90
41310;DHT22;27057;51.438;-0.010;2022-08-01T09:09:22;23.00;99.90
41310;DHT22;27057;51.438;-0.010;2022-08-01T09:11:50;23.10;99.90
41310;DHT22;27057;51.438;-0.010;2022-08-01T09:14:25;23.20;99.90
41310;DHT22;27057;51.438;-0.010;2022-08-01T09:17:05;23.30;99.90
41310;DHT22;27057;51.438;-0.010;2022-08-01T09:19:43;23.40;99.90
41310;DHT22;27057;51.438;-0.010;2022-08-01T09:22:16;23.40;99.90
41310;DHT22;27057;51.438;-0.010;2022-08-01T09:24:58;23.50;99.90
41310;DHT22;27057;51.438;-0.010;2022-08-01T09:27:26;23.60;99.90
41310;DHT22;27057;51.438;-0.010;2022-08-01T09:29:54;23.60;99.90
41310;DHT22;27057;51.438;-0.010;2022-08-01T09:32:29;23.60;99.90
41310;DHT22;27057;51.438;-0.010;2022-08-01T09:35:22;23.60;99.90
41310;DHT22;27057;51.438;-0.010;2022-08-01T09:38:14;23.60;99.90
41310;DHT22;27057;51.438;-0.010;2022-08-01T09:40:51;23.70;99.90
41310;DHT22;27057;51.438;-0.010;2022-08-01T09:43:20;23.70;99.90
41310;DHT22;27057;51.438;-0.010;2022-08-01T09:45:47;23.90;99.90
41310;DHT22;27057;51.438;-0.010;2022-08-01T09:48:20;24.00;99.90
41310;DHT22;27057;51.438;-0.010;2022-08-01T09:50:55;24.10;99.90
41310;DHT22;27057;51.438;-0.010;2022-08-01T09:53:43;24.20;99.90
41310;DHT22;27057;51.438;-0.010;2022-08-01T09:56:20;24.30;99.90
41310;DHT22;27057;51.438;-0.010;2022-08-01T09:58:58;24.50;99.90
41310;DHT22;27057;51.438;-0.010;2022-08-01T10:01:42;24.70;99.90
41310;DHT22;27057;51.438;-0.010;2022-08-01T10:04:15;24.90;99.90
41310;DHT22;27057;51.438;-0.010;2022-08-01T10:06:46;24.90;99.90
41310;DHT22;27057;51.438;-0.010;2022-08-01T10:09:27;25.00;99.90
41310;DHT22;27057;51.438;-0.010;2022-08-01T10:12:08;25.00;99.90
41310;DHT22;27057;51.438;-0.010;2022-08-01T10:14:43;25.10;99.90
41310;DHT22;27057;51.438;-0.010;2022-08-01T10:17:19;25.10;99.90
41310;DHT22;27057;51.438;-0.010;2022-08-01T10:19:48;25.20;99.90
41310;DHT22;27057;51.438;-0.010;2022-08-01T10:22:24;25.20;99.90
41310;DHT22;27057;51.438;-0.010;2022-08-01T10:24:56;25.30;99.90
41310;DHT22;27057;51.438;-0.010;2022-08-01T10:27:25;25.30;99.90
41310;DHT22;27057;51.438;-0.010;2022-08-01T10:30:06;25.40;99.90
41310;DHT22;27057;51.438;-0.010;2022-08-01T10:32:50;25.50;99.90
41310;DHT22;27057;51.438;-0.010;2022-08-01T10:35:21;25.60;99.90
41310;DHT22;27057;51.438;-0.010;2022-08-01T10:38:09;25.80;99.90
41310;DHT22;27057;51.438;-0.010;2022-08-01T10:40:41;25.90;99.90
41310;DHT22;27057;51.438;-0.010;2022-08-01T10:43:13;25.80;99.90
41310;DHT22;27057;51.438;-0.010;2022-08-01T10:45:49;25.80;99.90
41310;DHT22;27057;51.438;-0.010;2022-08-01T10:48:24;25.80;99.90
41310;DHT22;27057;51.438;-0.010;2022-08-01T10:50:59;25.80;99.90
41310;DHT22;27057;51.438;-0.010;2022-08-01T10:53:29;25.80;99.90
41310;DHT22;27057;51.438;-0.010;2022-08-01T10:56:09;25.80;99.90
41310;DHT22;27057;51.438;-0.010;2022-08-01T10:58:44;25.70;99.90
41310;DHT22;27057;51.438;-0.010;2022-08-01T11:03:43;25.90;99.70
41310;DHT22;27057;51.438;-0.010;2022-08-01T11:06:42;26.00;99.90
41310;DHT22;27057;51.438;-0.010;2022-08-01T11:17:36;25.50;99.90
41310;DHT22;27057;51.438;-0.010;2022-08-01T11:28:26;26.00;99.00
41310;DHT22;27057;51.438;-0.010;2022-08-01T11:38:44;26.50;98.60
41310;DHT22;27057;51.438;-0.010;2022-08-01T11:49:31;26.40;97.80
41310;DHT22;27057;51.438;-0.010;2022-08-01T11:52:08;26.30;97.10
41310;DHT22;27057;51.438;-0.010;2022-08-01T11:54:43;26.00;97.30
41310;DHT22;27057;51.438;-0.010;2022-08-01T11:57:12;25.80;97.50
41310;DHT22;27057;51.438;-0.010;2022-08-01T11:59:41;25.80;98.00
41310;DHT22;27057;51.438;-0.010;2022-08-01T12:02:38;25.80;98.20
41310;DHT22;27057;51.438;-0.010;2022-08-01T12:05:08;25.90;98.30
41310;DHT22;27057;51.438;-0.010;2022-08-01T12:07:39;26.10;98.30
41310;DHT22;27057;51.438;-0.010;2022-08-01T12:10:15;26.30;98.10
41310;DHT22;27057;51.438;-0.010;2022-08-01T12:12:47;26.50;97.80
41310;DHT22;27057;51.438;-0.010;2022-08-01T12:15:16;26.90;97.60
41310;DHT22;27057;51.438;-0.010;2022-08-01T12:17:55;27.00;97.10
41310;DHT22;27057;51.438;-0.010;2022-08-01T12:20:37;27.10;97.10
41310;DHT22;27057;51.438;-0.010;2022-08-01T12:23:20;27.50;96.50
41310;DHT22;27057;51.438;-0.010;2022-08-01T12:25:51;27.70;96.30
41310;DHT22;27057;51.438;-0.010;2022-08-01T12:28:19;28.00;95.50
41310;DHT22;27057;51.438;-0.010;2022-08-01T12:30:48;28.00;96.10
41310;DHT22;27057;51.438;-0.010;2022-08-01T12:33:20;28.10;96.00
41310;DHT22;27057;51.438;-0.010;2022-08-01T12:35:47;27.90;95.80
41310;DHT22;27057;51.438;-0.010;2022-08-01T12:38:17;28.10;95.90
41310;DHT22;27057;51.438;-0.010;2022-08-01T12:40:46;28.30;96.10
41310;DHT22;27057;51.438;-0.010;2022-08-01T12:43:22;28.30;95.80
41310;DHT22;27057;51.438;-0.010;2022-08-01T12:45:57;28.20;96.00
41310;DHT22;27057;51.438;-0.010;2022-08-01T12:48:26;28.00;96.20
41310;DHT22;27057;51.438;-0.010;2022-08-01T12:50:55;27.90;95.70
41310;DHT22;27057;51.438;-0.010;2022-08-01T12:53:25;27.90;96.20
41310;DHT22;27057;51.438;-0.010;2022-08-01T12:56:08;28.20;96.30
41310;DHT22;27057;51.438;-0.010;2022-08-01T12:58:37;28.30;96.10
41310;DHT22;27057;51.438;-0.010;2022-08-01T13:01:07;28.50;95.90
41310;DHT22;27057;51.438;-0.010;2022-08-01T13:03:35;28.40;95.00
41310;DHT22;27057;51.438;-0.010;2022-08-01T13:06:13;27.90;95.10
41310;DHT22;27057;51.438;-0.010;2022-08-01T13:08:43;27.40;95.80
41310;DHT22;27057;51.438;-0.010;2022-08-01T13:11:12;27.30;96.20
41310;DHT22;27057;51.438;-0.010;2022-08-01T13:13:46;27.60;99.90
41310;DHT22;27057;51.438;-0.010;2022-08-01T13:16:17;27.20;96.90
41310;DHT22;27057;51.438;-0.010;2022-08-01T13:19:05;27.50;96.80
41310;DHT22;27057;51.438;-0.010;2022-08-01T13:21:33;27.60;96.80
41310;DHT22;27057;51.438;-0.010;2022-08-01T13:24:28;27.70;96.90
41310;DHT22;27057;51.438;-0.010;2022-08-01T13:31:58;27.60;96.60
41310;DHT22;27057;51.438;-0.010;2022-08-01T13:34:35;27.70;96.70
41310;DHT22;27057;51.438;-0.010;2022-08-01T13:37:03;27.70;96.30
41310;DHT22;27057;51.438;-0.010;2022-08-01T13:39:34;27.70;96.50
41310;DHT22;27057;51.438;-0.010;2022-08-01T13:42:16;27.60;96.60
41310;DHT22;27057;51.438;-0.010;2022-08-01T13:44:45;27.60;96.20
41310;DHT22;27057;51.438;-0.010;2022-08-01T13:47:13;27.50;96.40
41310;DHT22;27057;51.438;-0.010;2022-08-01T13:49:43;27.50;96.30
41310;DHT22;27057;51.438;-0.010;2022-08-01T13:52:10;27.50;96.20
41310;DHT22;27057;51.438;-0.010;2022-08-01T13:54:38;27.90;96.30
41310;DHT22;27057;51.438;-0.010;2022-08-01T13:57:05;28.30;95.10
41310;DHT22;27057;51.438;-0.010;2022-08-01T13:59:33;28.60;95.60
41310;DHT22;27057;51.438;-0.010;2022-08-01T14:02:00;29.20;95.30
41310;DHT22;27057;51.438;-0.010;2022-08-01T14:04:28;29.40;94.40
41310;DHT22;27057;51.438;-0.010;2022-08-01T14:06:55;29.30;94.30
41310;DHT22;27057;51.438;-0.010;2022-08-01T14:09:24;29.10;94.40
41310;DHT22;27057;51.438;-0.010;2022-08-01T14:11:58;29.00;94.50
41310;DHT22;27057;51.438;-0.010;2022-08-01T14:14:26;29.10;93.90
41310;DHT22;27057;51.438;-0.010;2022-08-01T14:16:54;29.30;93.60
41310;DHT22;27057;51.438;-0.010;2022-08-01T14:19:22;29.70;93.20
41310;DHT22;27057;51.438;-0.010;2022-08-01T14:22:05;30.20;93.50
41310;DHT22;27057;51.438;-0.010;2022-08-01T14:24:33;30.20;91.70
41310;DHT22;27057;51.438;-0.010;2022-08-01T14:27:01;30.40;92.90
41310;DHT22;27057;51.438;-0.010;2022-08-01T14:29:29;30.00;91.90
41310;DHT22;27057;51.438;-0.010;2022-08-01T14:32:16;29.80;92.70
41310;DHT22;27057;51.438;-0.010;2022-08-01T14:34:43;29.70;92.80
41310;DHT22;27057;51.438;-0.010;2022-08-01T14:37:11;29.90;92.50
41310;DHT22;27057;51.438;-0.010;2022-08-01T14:39:40;30.00;92.80
41310;DHT22;27057;51.438;-0.010;2022-08-01T14:42:19;29.60;91.80
41310;DHT22;27057;51.438;-0.010;2022-08-01T14:44:47;29.20;91.80
41310;DHT22;27057;51.438;-0.010;2022-08-01T14:47:16;29.00;92.40
41310;DHT22;27057;51.438;-0.010;2022-08-01T14:49:49;28.60;93.10
41310;DHT22;27057;51.438;-0.010;2022-08-01T14:52:17;28.20;92.70
41310;DHT22;27057;51.438;-0.010;2022-08-01T14:54:44;28.00;93.10
41310;DHT22;27057;51.438;-0.010;2022-08-01T14:57:11;27.90;93.30
41310;DHT22;27057;51.438;-0.010;2022-08-01T14:59:39;27.90;93.50
41310;DHT22;27057;51.438;-0.010;2022-08-01T15:02:06;28.00;93.30
41310;DHT22;27057;51.438;-0.010;2022-08-01T15:04:34;28.00;92.70
41310;DHT22;27057;51.438;-0.010;2022-08-01T15:07:01;28.00;92.90
41310;DHT22;27057;51.438;-0.010;2022-08-01T15:09:29;27.90;93.20
41310;DHT22;27057;51.438;-0.010;2022-08-01T15:11:56;27.90;93.20
41310;DHT22;27057;51.438;-0.010;2022-08-01T15:14:23;27.90;93.20
41310;DHT22;27057;51.438;-0.010;2022-08-01T15:17:09;28.10;92.90
41310;DHT22;27057;51.438;-0.010;2022-08-01T15:19:36;28.80;93.30
41310;DHT22;27057;51.438;-0.010;2022-08-01T15:22:08;29.00;92.70
41310;DHT22;27057;51.438;-0.010;2022-08-01T15:24:36;29.00;92.30
41310;DHT22;27057;51.438;-0.010;2022-08-01T15:27:04;28.60;92.30
41310;DHT22;27057;51.438;-0.010;2022-08-01T15:29:32;28.30;92.70
41310;DHT22;27057;51.438;-0.010;2022-08-01T15:32:01;28.10;93.10
41310;DHT22;27057;51.438;-0.010;2022-08-01T15:34:31;28.00;93.40
41310;DHT22;27057;51.438;-0.010;2022-08-01T15:36:58;27.80;93.50
41310;DHT22;27057;51.438;-0.010;2022-08-01T15:39:26;27.70;94.10
41310;DHT22;27057;51.438;-0.010;2022-08-01T15:41:53;27.60;94.30
41310;DHT22;27057;51.438;-0.010;2022-08-01T15:44:21;27.40;94.70
41310;DHT22;27057;51.438;-0.010;2022-08-01T15:46:49;27.50;94.60
41310;DHT22;27057;51.438;-0.010;2022-08-01T15:49:17;27.50;94.60
41310;DHT22;27057;51.438;-0.010;2022-08-01T15:51:44;27.50;94.70
41310;DHT22;27057;51.438;-0.010;2022-08-01T15:54:12;27.50;94.60
41310;DHT22;27057;51.438;-0.010;2022-08-01T15:56:41;27.50;94.70
41310;DHT22;27057;51.438;-0.010;2022-08-01T15:59:08;27.80;94.70
41310;DHT22;27057;51.438;-0.010;2022-08-01T16:01:36;27.80;94.80
41310;DHT22;27057;51.438;-0.010;2022-08-01T16:04:05;27.80;94.90
41310;DHT22;27057;51.438;-0.010;2022-08-01T16:06:34;27.70;95.00
41310;DHT22;27057;51.438;-0.010;2022-08-01T16:09:05;27.60;94.90
41310;DHT22;27057;51.438;-0.010;2022-08-01T16:11:33;27.60;95.00
41310;DHT22;27057;51.438;-0.010;2022-08-01T16:14:03;27.50;94.80
41310;DHT22;27057;51.438;-0.010;2022-08-01T16:16:31;27.40;94.70
41310;DHT22;27057;51.438;-0.010;2022-08-01T16:18:58;27.10;94.30
41310;DHT22;27057;51.438;-0.010;2022-08-01T16:21:25;27.30;94.60
41310;DHT22;27057;51.438;-0.010;2022-08-01T16:23:53;27.90;94.50
41310;DHT22;27057;51.438;-0.010;2022-08-01T16:26:20;28.10;94.20
41310;DHT22;27057;51.438;-0.010;2022-08-01T16:28:54;28.00;93.90
41310;DHT22;27057;51.438;-0.010;2022-08-01T16:31:21;28.30;93.30
41310;DHT22;27057;51.438;-0.010;2022-08-01T16:34:08;28.20;94.20
41310;DHT22;27057;51.438;-0.010;2022-08-01T16:36:39;28.10;93.80
41310;DHT22;27057;51.438;-0.010;2022-08-01T16:39:07;28.00;94.10